createdAt,value
2022-11-13T00:00:05.702Z,47.75
2022-11-13T00:02:34.281Z,47.76
2022-11-13T00:05:00.717Z,48.23
2022-11-13T00:07:27.962Z,47.59
2022-11-13T00:09:55.614Z,48.12
2022-11-13T00:12:22.089Z,47.94
2022-11-13T00:14:48.436Z,48.22
2022-11-13T00:17:15.781Z,48.15
2022-11-13T00:19:42.088Z,47.77
2022-11-13T00:22:08.402Z,47.47
2022-11-13T00:24:34.925Z,48.12
2022-11-13T00:27:01.294Z,47.41
2022-11-13T00:29:27.845Z,47.41
2022-11-13T00:31:54.177Z,47.47
2022-11-13T00:34:41.481Z,48.16
2022-11-13T00:37:06.897Z,47.95
2022-11-13T00:39:33.398Z,47.76
2022-11-13T00:41:59.813Z,47.99
2022-11-13T00:44:26.330Z,47.57
2022-11-13T00:46:52.674Z,47.90
2022-11-13T00:49:18.972Z,47.83
2022-11-13T00:51:45.518Z,48.05
2022-11-13T00:54:11.881Z,48.34
2022-11-13T00:56:38.396Z,47.63
2022-11-13T00:59:04.820Z,48.12
2022-11-13T01:01:31.366Z,48.29
2022-11-13T01:03:57.956Z,48.47
2022-11-13T01:06:26.595Z,48.35
2022-11-13T01:08:58.297Z,48.92
2022-11-13T01:11:28.025Z,48.40
2022-11-13T01:13:56.242Z,48.05
2022-11-13T01:16:25.230Z,48.40
2022-11-13T01:18:55.328Z,48.43
2022-11-13T01:21:24.898Z,48.39
2022-11-13T01:23:51.367Z,48.01
2022-11-13T01:26:24.781Z,48.84
2022-11-13T01:28:51.328Z,47.95
2022-11-13T01:31:21.213Z,48.74
2022-11-13T01:33:48.740Z,48.14
2022-11-13T01:36:24.534Z,48.67
2022-11-13T01:38:51.740Z,48.26
2022-11-13T01:41:23.998Z,48.45
2022-11-13T01:43:52.002Z,48.32
2022-11-13T01:46:28.751Z,48.95
2022-11-13T01:49:12.311Z,49.07
2022-11-13T01:51:47.754Z,48.62
2022-11-13T01:54:20.863Z,48.68
2022-11-13T01:56:48.228Z,48.77
2022-11-13T01:59:20.202Z,48.73
2022-11-13T02:01:46.692Z,48.69
2022-11-13T02:04:13.232Z,48.42
2022-11-13T02:06:44.703Z,48.75
2022-11-13T02:09:13.908Z,48.61
2022-11-13T02:11:41.310Z,48.54
2022-11-13T02:14:09.457Z,48.86
2022-11-13T02:16:37.778Z,48.96
2022-11-13T02:19:11.203Z,49.16
2022-11-13T02:21:52.848Z,49.39
2022-11-13T02:24:29.252Z,49.13
2022-11-13T02:27:01.254Z,48.99
2022-11-13T02:29:27.753Z,48.42
2022-11-13T02:31:54.120Z,48.31
2022-11-13T02:34:20.524Z,48.75
2022-11-13T02:36:47.213Z,48.51
2022-11-13T02:39:14.351Z,48.39
2022-11-13T02:41:41.097Z,48.31
2022-11-13T02:44:08.757Z,48.61
2022-11-13T02:46:36.297Z,48.79
2022-11-13T02:49:02.917Z,48.51
2022-11-13T02:51:29.703Z,48.62
2022-11-13T02:53:56.325Z,48.65
2022-11-13T02:56:22.842Z,48.57
2022-11-13T02:58:49.184Z,48.64
2022-11-13T03:01:15.592Z,48.42
2022-11-13T03:03:57.171Z,48.75
2022-11-13T03:06:24.249Z,48.61
2022-11-13T03:08:50.548Z,48.33
2022-11-13T03:11:17.205Z,48.75
2022-11-13T03:13:43.562Z,48.73
2022-11-13T03:16:13.190Z,48.90
2022-11-13T03:18:40.223Z,48.70
2022-11-13T03:21:09.370Z,48.89
2022-11-13T03:23:35.947Z,48.96
2022-11-13T03:26:12.367Z,49.42
2022-11-13T03:28:38.713Z,48.82
2022-11-13T03:31:05.744Z,48.80
2022-11-13T03:33:32.528Z,49.04
2022-11-13T03:35:59.008Z,48.78
2022-11-13T03:38:26.085Z,49.40
2022-11-13T03:40:53.009Z,49.02
2022-11-13T03:43:19.514Z,49.09
2022-11-13T03:45:47.034Z,48.95
2022-11-13T03:48:14.993Z,49.14
2022-11-13T03:50:47.139Z,49.49
2022-11-13T03:53:14.719Z,48.88
2022-11-13T03:55:43.001Z,48.92
2022-11-13T03:58:11.428Z,49.07
2022-11-13T04:00:41.617Z,49.18
2022-11-13T04:03:08.292Z,49.26
2022-11-13T04:05:34.787Z,49.29
2022-11-13T04:08:01.135Z,49.38
2022-11-13T04:10:27.883Z,48.86
2022-11-13T04:12:54.209Z,48.83
2022-11-13T04:15:20.762Z,48.49
2022-11-13T04:17:48.077Z,48.67
2022-11-13T04:20:14.725Z,48.99
2022-11-13T04:22:41.253Z,48.75
2022-11-13T04:25:09.361Z,48.61
2022-11-13T04:27:35.812Z,48.52
2022-11-13T04:30:03.391Z,48.60
2022-11-13T04:32:29.944Z,49.00
2022-11-13T04:34:56.302Z,49.17
2022-11-13T04:37:22.827Z,49.04
2022-11-13T04:39:49.321Z,49.20
2022-11-13T04:42:34.987Z,48.76
2022-11-13T04:45:01.360Z,48.77
2022-11-13T04:47:27.693Z,49.21
2022-11-13T04:49:53.985Z,48.81
2022-11-13T04:52:21.380Z,48.77
2022-11-13T04:54:47.699Z,48.73
2022-11-13T04:57:14.091Z,48.99
2022-11-13T04:59:40.442Z,48.96
2022-11-13T05:02:07.132Z,48.78
2022-11-13T05:04:33.637Z,49.00
2022-11-13T05:07:00.227Z,48.68
2022-11-13T05:09:26.647Z,49.37
2022-11-13T05:11:52.955Z,49.32
2022-11-13T05:14:19.306Z,49.05
2022-11-13T05:16:45.772Z,49.17
2022-11-13T05:19:12.089Z,49.29
2022-11-13T05:21:39.851Z,48.94
2022-11-13T05:24:06.824Z,48.83
2022-11-13T05:26:33.247Z,49.28
2022-11-13T05:29:00.533Z,49.33
2022-11-13T05:31:27.301Z,48.93
2022-11-13T05:33:55.018Z,49.04
2022-11-13T05:36:22.255Z,49.28
2022-11-13T05:38:49.045Z,49.41
2022-11-13T05:41:17.886Z,49.28
2022-11-13T05:43:44.685Z,49.30
2022-11-13T05:46:17.693Z,49.21
2022-11-13T05:48:44.885Z,48.85
2022-11-13T05:51:18.500Z,49.02
2022-11-13T05:53:45.241Z,48.93
2022-11-13T05:56:20.734Z,49.81
2022-11-13T05:58:47.973Z,49.46
2022-11-13T06:01:34.637Z,49.95
2022-11-13T06:04:01.491Z,48.90
2022-11-13T06:06:29.607Z,49.02
2022-11-13T06:08:57.287Z,49.16
2022-11-13T06:11:25.880Z,49.58
2022-11-13T06:13:53.203Z,49.65
2022-11-13T06:16:25.833Z,49.66
2022-11-13T06:18:57.034Z,49.73
2022-11-13T06:21:25.849Z,49.77
2022-11-13T06:23:52.900Z,49.52
2022-11-13T06:26:22.639Z,49.75
2022-11-13T06:28:49.317Z,49.22
2022-11-13T06:31:20.768Z,49.13
2022-11-13T06:33:47.679Z,49.14
2022-11-13T06:36:35.636Z,49.28
2022-11-13T06:39:05.057Z,49.24
2022-11-13T06:41:32.531Z,49.28
2022-11-13T06:44:02.941Z,49.31
2022-11-13T06:46:30.000Z,49.24
2022-11-13T06:48:56.929Z,49.16
2022-11-13T06:51:27.127Z,49.08
2022-11-13T06:53:53.584Z,48.73
2022-11-13T06:56:21.139Z,48.98
2022-11-13T06:58:47.719Z,49.12
2022-11-13T07:01:19.272Z,49.53
2022-11-13T07:03:45.928Z,49.12
2022-11-13T07:06:15.152Z,49.63
2022-11-13T07:08:42.483Z,49.89
2022-11-13T07:11:15.699Z,50.15
2022-11-13T07:13:42.862Z,50.03
2022-11-13T07:16:17.031Z,49.84
2022-11-13T07:18:51.177Z,49.61
2022-11-13T07:21:17.554Z,49.50
2022-11-13T07:23:48.112Z,49.83
2022-11-13T07:26:14.595Z,50.00
2022-11-13T07:28:41.129Z,50.03
2022-11-13T07:31:07.993Z,49.86
2022-11-13T07:33:34.454Z,49.94
2022-11-13T07:36:01.306Z,49.98
2022-11-13T07:38:28.063Z,49.87
2022-11-13T07:40:54.935Z,50.16
2022-11-13T07:43:21.330Z,49.46
2022-11-13T07:45:47.715Z,49.84
2022-11-13T07:48:14.139Z,49.81
2022-11-13T07:50:40.709Z,50.09
2022-11-13T07:53:08.723Z,50.16
2022-11-13T07:55:35.945Z,49.87
2022-11-13T07:58:03.353Z,49.85
2022-11-13T08:00:31.319Z,50.20
2022-11-13T08:02:57.908Z,50.06
2022-11-13T08:05:25.577Z,50.10
2022-11-13T08:07:52.912Z,49.77
2022-11-13T08:10:20.705Z,50.15
2022-11-13T08:12:47.235Z,49.74
2022-11-13T08:15:14.396Z,50.23
2022-11-13T08:17:41.299Z,50.05
2022-11-13T08:20:08.977Z,50.11
2022-11-13T08:22:35.405Z,50.36
2022-11-13T08:25:01.764Z,50.30
2022-11-13T08:27:28.815Z,50.24
2022-11-13T08:29:55.254Z,50.23
2022-11-13T08:32:22.885Z,50.21
2022-11-13T08:34:49.348Z,50.38
2022-11-13T08:37:16.248Z,50.40
2022-11-13T08:39:42.625Z,50.10
2022-11-13T08:42:09.181Z,49.97
2022-11-13T08:44:35.530Z,49.74
2022-11-13T08:47:02.025Z,49.84
2022-11-13T08:49:28.403Z,50.07
2022-11-13T08:51:54.766Z,49.86
2022-11-13T08:54:21.134Z,49.54
2022-11-13T08:56:52.963Z,49.79
2022-11-13T08:59:23.598Z,49.85
2022-11-13T09:01:50.625Z,50.08
2022-11-13T09:04:17.010Z,49.25
2022-11-13T09:06:43.436Z,49.09
2022-11-13T09:09:10.132Z,49.45
2022-11-13T09:11:36.577Z,48.61
2022-11-13T09:14:02.897Z,48.21
2022-11-13T09:16:29.363Z,48.98
2022-11-13T09:18:55.693Z,48.41
2022-11-13T09:21:22.259Z,48.48
2022-11-13T09:23:48.817Z,48.41
2022-11-13T09:26:15.330Z,48.75
2022-11-13T09:28:41.756Z,48.50
2022-11-13T09:31:08.377Z,47.86
2022-11-13T09:33:35.515Z,47.51
2022-11-13T09:36:02.776Z,48.16
2022-11-13T09:38:32.474Z,47.48
2022-11-13T09:41:05.375Z,47.99
2022-11-13T09:43:40.839Z,47.45
2022-11-13T09:46:30.400Z,47.55
2022-11-13T09:49:02.573Z,47.31
2022-11-13T09:51:33.584Z,47.41
2022-11-13T09:54:04.962Z,47.21
2022-11-13T09:56:35.799Z,46.62
2022-11-13T09:59:29.019Z,46.38
2022-11-13T10:02:20.972Z,46.00
2022-11-13T10:05:19.794Z,45.93
2022-11-13T10:08:05.917Z,45.88
2022-11-13T10:10:44.207Z,46.08
2022-11-13T10:13:14.592Z,46.03
2022-11-13T10:15:44.958Z,46.13
2022-11-13T10:18:27.030Z,45.43
2022-11-13T10:20:57.970Z,46.20
2022-11-13T10:23:35.103Z,44.95
2022-11-13T10:26:29.556Z,44.91
2022-11-13T10:29:11.733Z,44.52
2022-11-13T10:31:50.249Z,44.63
2022-11-13T10:34:17.916Z,45.12
2022-11-13T10:37:05.949Z,44.80
2022-11-13T10:39:41.795Z,43.96
2022-11-13T10:42:31.608Z,44.22
2022-11-13T10:45:00.564Z,44.45
2022-11-13T10:48:01.975Z,44.29
2022-11-13T10:50:31.133Z,43.75
2022-11-13T10:52:57.954Z,44.30
2022-11-13T10:55:41.563Z,42.52
2022-11-13T10:58:13.606Z,43.01
2022-11-13T11:00:44.502Z,43.69
2022-11-13T11:03:17.927Z,42.76
2022-11-13T11:05:59.595Z,42.52
2022-11-13T11:08:33.754Z,42.29
2022-11-13T11:11:21.237Z,42.52
2022-11-13T11:13:51.244Z,42.46
2022-11-13T11:16:23.698Z,41.06
2022-11-13T11:18:57.953Z,41.00
2022-11-13T11:21:34.994Z,40.09
2022-11-13T11:24:34.749Z,40.03
2022-11-13T11:27:23.110Z,40.81
2022-11-13T11:29:53.216Z,41.40
2022-11-13T11:32:33.577Z,39.97
2022-11-13T11:35:14.616Z,39.84
2022-11-13T11:38:07.549Z,39.54
2022-11-13T11:40:42.405Z,39.71
2022-11-13T11:43:34.526Z,39.95
2022-11-13T11:46:05.167Z,40.75
2022-11-13T11:48:33.142Z,40.94
2022-11-13T11:51:05.526Z,40.42
2022-11-13T11:53:45.800Z,39.42
2022-11-13T11:56:33.550Z,40.82
2022-11-13T11:59:22.497Z,39.41
2022-11-13T12:02:28.914Z,39.02
2022-11-13T12:05:02.768Z,38.79
2022-11-13T12:07:29.548Z,39.71
2022-11-13T12:10:04.253Z,39.97
2022-11-13T12:12:49.033Z,39.33
2022-11-13T12:15:23.557Z,39.61
2022-11-13T12:18:22.355Z,36.96
2022-11-13T12:21:07.901Z,37.74
2022-11-13T12:23:35.747Z,38.15
2022-11-13T12:26:23.543Z,37.45
2022-11-13T12:29:10.999Z,37.01
2022-11-13T12:31:59.261Z,36.96
2022-11-13T12:34:35.421Z,36.33
2022-11-13T12:37:10.689Z,36.40
2022-11-13T12:39:43.210Z,37.38
2022-11-13T12:42:18.006Z,36.40
2022-11-13T12:45:00.503Z,36.09
2022-11-13T12:47:27.369Z,37.22
2022-11-13T12:50:05.565Z,36.01
2022-11-13T12:52:31.916Z,36.77
2022-11-13T12:55:07.385Z,35.36
2022-11-13T12:57:33.853Z,36.26
2022-11-13T13:00:28.473Z,35.70
2022-11-13T13:03:11.322Z,35.35
2022-11-13T13:06:16.607Z,35.07
2022-11-13T13:09:20.729Z,35.58
2022-11-13T13:12:13.596Z,35.45
2022-11-13T13:15:04.125Z,35.38
2022-11-13T13:17:30.573Z,36.26
2022-11-13T13:20:02.288Z,35.48
2022-11-13T13:22:33.121Z,35.72
2022-11-13T13:25:04.174Z,35.79
2022-11-13T13:27:37.491Z,35.54
2022-11-13T13:30:26.205Z,35.49
2022-11-13T13:33:20.728Z,35.31
2022-11-13T13:35:57.646Z,35.84
2022-11-13T13:38:26.730Z,36.00
2022-11-13T13:41:17.147Z,35.60
2022-11-13T13:44:14.554Z,36.15
2022-11-13T13:46:41.786Z,36.57
2022-11-13T13:49:14.498Z,36.18
2022-11-13T13:51:44.183Z,36.11
2022-11-13T13:54:22.348Z,36.04
2022-11-13T13:56:49.346Z,36.64
2022-11-13T13:59:22.203Z,36.36
2022-11-13T14:01:58.317Z,36.22
2022-11-13T14:04:27.884Z,36.68
2022-11-13T14:06:56.968Z,36.71
2022-11-13T14:09:28.380Z,36.40
2022-11-13T14:12:09.607Z,36.26
2022-11-13T14:14:39.516Z,36.65
2022-11-13T14:17:07.070Z,36.54
2022-11-13T14:19:33.815Z,37.00
2022-11-13T14:22:02.781Z,37.07
2022-11-13T14:24:34.364Z,37.01
2022-11-13T14:27:07.369Z,37.33
2022-11-13T14:30:02.238Z,37.22
2022-11-13T14:32:31.994Z,37.41
2022-11-13T14:35:01.733Z,37.54
2022-11-13T14:37:44.690Z,37.45
2022-11-13T14:40:23.232Z,37.79
2022-11-13T14:42:59.885Z,37.98
2022-11-13T14:45:33.002Z,37.50
2022-11-13T14:48:01.998Z,37.82
2022-11-13T14:50:35.480Z,38.11
2022-11-13T14:53:07.997Z,38.25
2022-11-13T14:55:39.131Z,38.30
2022-11-13T14:58:05.983Z,38.49
2022-11-13T15:00:35.238Z,38.73
2022-11-13T15:03:03.764Z,39.00
2022-11-13T15:05:30.402Z,39.15
2022-11-13T15:07:57.429Z,39.12
2022-11-13T15:10:27.681Z,39.33
2022-11-13T15:12:54.433Z,38.97
2022-11-13T15:15:27.007Z,39.14
2022-11-13T15:17:54.592Z,39.06
2022-11-13T15:20:28.709Z,38.54
2022-11-13T15:22:57.103Z,38.61
2022-11-13T15:25:25.162Z,38.70
2022-11-13T15:27:53.295Z,38.58
2022-11-13T15:30:20.190Z,38.94
2022-11-13T15:32:48.005Z,39.27
2022-11-13T15:35:18.002Z,38.96
2022-11-13T15:37:45.240Z,38.59
2022-11-13T15:40:13.079Z,39.09
2022-11-13T15:42:40.897Z,39.46
2022-11-13T15:45:12.852Z,39.43
2022-11-13T15:47:39.566Z,39.29
2022-11-13T15:50:16.574Z,39.44
2022-11-13T15:52:49.025Z,39.83
2022-11-13T15:55:30.463Z,39.83
2022-11-13T15:57:58.443Z,39.76
2022-11-13T16:00:27.314Z,40.17
2022-11-13T16:02:56.484Z,40.29
2022-11-13T16:05:29.178Z,40.38
2022-11-13T16:07:56.650Z,40.30
2022-11-13T16:10:25.086Z,40.42
2022-11-13T16:12:52.824Z,40.37
2022-11-13T16:15:19.925Z,40.39
2022-11-13T16:17:49.345Z,39.62
2022-11-13T16:20:18.819Z,39.94
2022-11-13T16:22:45.762Z,39.86
2022-11-13T16:25:18.707Z,40.55
2022-11-13T16:27:45.968Z,40.45
2022-11-13T16:30:16.990Z,40.40
2022-11-13T16:32:43.497Z,40.36
2022-11-13T16:35:19.924Z,39.21
2022-11-13T16:37:46.428Z,39.86
2022-11-13T16:40:26.561Z,38.51
2022-11-13T16:42:53.617Z,38.94
2022-11-13T16:45:21.023Z,38.98
2022-11-13T16:47:47.797Z,39.02
2022-11-13T16:50:26.825Z,38.24
2022-11-13T16:52:53.314Z,38.53
2022-11-13T16:55:19.670Z,38.05
2022-11-13T16:57:46.128Z,38.11
2022-11-13T17:00:16.167Z,37.57
2022-11-13T17:02:43.122Z,37.87
2022-11-13T17:05:14.198Z,36.69
2022-11-13T17:07:41.315Z,37.14
2022-11-13T17:10:32.403Z,36.66
2022-11-13T17:13:00.059Z,36.83
2022-11-13T17:15:26.454Z,36.37
2022-11-13T17:17:57.048Z,36.14
2022-11-13T17:20:26.106Z,36.75
2022-11-13T17:22:52.468Z,36.39
2022-11-13T17:25:20.392Z,36.35
2022-11-13T17:27:47.138Z,36.30
2022-11-13T17:30:13.984Z,36.77
2022-11-13T17:32:40.508Z,36.45
2022-11-13T17:35:07.363Z,36.41
2022-11-13T17:37:33.911Z,36.59
2022-11-13T17:40:00.334Z,36.41
2022-11-13T17:42:28.821Z,36.58
2022-11-13T17:44:55.473Z,36.58
2022-11-13T17:47:22.009Z,36.72
2022-11-13T17:49:48.374Z,36.55
2022-11-13T17:52:14.833Z,36.86
2022-11-13T17:54:41.343Z,36.89
2022-11-13T17:57:10.449Z,36.92
2022-11-13T17:59:36.903Z,36.97
2022-11-13T18:02:03.393Z,37.03
2022-11-13T18:04:29.762Z,37.31
2022-11-13T18:06:56.692Z,37.26
2022-11-13T18:09:23.059Z,37.48
2022-11-13T18:11:49.370Z,37.48
2022-11-13T18:14:16.119Z,37.75
2022-11-13T18:16:42.447Z,37.30
2022-11-13T18:19:09.514Z,37.66
2022-11-13T18:21:37.416Z,37.84
2022-11-13T18:24:07.424Z,37.80
2022-11-13T18:26:36.660Z,37.69
2022-11-13T18:29:03.856Z,37.84
2022-11-13T18:31:30.567Z,38.15
2022-11-13T18:34:02.594Z,37.78
2022-11-13T18:36:29.166Z,37.92
2022-11-13T18:38:58.307Z,38.07
2022-11-13T18:41:25.692Z,38.35
2022-11-13T18:43:52.275Z,38.18
2022-11-13T18:46:21.018Z,38.26
2022-11-13T18:48:48.650Z,38.42
2022-11-13T18:51:21.108Z,38.17
2022-11-13T18:53:49.287Z,38.47
2022-11-13T18:56:24.850Z,38.02
2022-11-13T18:58:55.501Z,38.61
2022-11-13T19:01:27.967Z,38.18
2022-11-13T19:06:46.483Z,38.16
2022-11-13T19:09:16.329Z,38.51
2022-11-13T19:11:43.929Z,38.56
2022-11-13T19:14:14.323Z,38.44
2022-11-13T19:16:42.324Z,38.84
2022-11-13T19:19:21.508Z,38.50
2022-11-13T19:21:48.156Z,38.03
2022-11-13T19:24:15.166Z,38.62
2022-11-13T19:26:43.479Z,38.39
2022-11-13T19:29:10.601Z,38.86
2022-11-13T19:31:37.041Z,38.92
2022-11-13T19:34:07.538Z,39.18
2022-11-13T19:36:34.693Z,38.73
2022-11-13T19:39:01.347Z,38.83
2022-11-13T19:41:29.138Z,38.79
2022-11-13T19:43:58.190Z,39.28
2022-11-13T19:46:24.495Z,39.08
2022-11-13T19:48:52.110Z,39.63
2022-11-13T19:51:20.630Z,39.71
2022-11-13T19:53:47.443Z,39.50
2022-11-13T19:56:15.845Z,39.78
2022-11-13T19:58:44.230Z,40.07
2022-11-13T20:01:12.958Z,40.13
2022-11-13T20:03:39.967Z,39.70
2022-11-13T20:06:07.956Z,40.25
2022-11-13T20:08:35.410Z,39.89
2022-11-13T20:11:07.606Z,40.47
2022-11-13T20:13:36.503Z,40.14
2022-11-13T20:16:07.570Z,40.41
2022-11-13T20:18:34.197Z,39.88
2022-11-13T20:21:00.962Z,40.95
2022-11-13T20:23:28.082Z,41.00
2022-11-13T20:25:56.519Z,40.59
2022-11-13T20:28:24.153Z,40.64
2022-11-13T20:30:52.431Z,40.61
2022-11-13T20:33:22.599Z,40.98
2022-11-13T20:35:55.698Z,40.89
2022-11-13T20:38:22.194Z,40.81
2022-11-13T20:40:48.809Z,40.60
2022-11-13T20:43:17.062Z,40.19
2022-11-13T20:45:43.665Z,41.05
2022-11-13T20:48:10.315Z,40.20
2022-11-13T20:50:37.384Z,40.65
2022-11-13T20:53:05.143Z,40.81
2022-11-13T20:55:31.815Z,40.75
2022-11-13T20:57:58.212Z,41.19
2022-11-13T21:00:24.700Z,41.46
2022-11-13T21:02:52.571Z,41.19
2022-11-13T21:05:18.925Z,41.17
2022-11-13T21:07:45.580Z,41.05
2022-11-13T21:10:11.899Z,41.25
2022-11-13T21:12:38.225Z,41.77
2022-11-13T21:15:04.980Z,41.13
2022-11-13T21:17:31.323Z,41.02
2022-11-13T21:19:57.979Z,42.06
2022-11-13T21:22:24.542Z,41.46
2022-11-13T21:24:50.991Z,42.01
2022-11-13T21:27:17.459Z,41.74
2022-11-13T21:29:43.966Z,41.76
2022-11-13T21:32:10.482Z,41.59
2022-11-13T21:34:37.794Z,42.20
2022-11-13T21:37:04.491Z,41.76
2022-11-13T21:39:31.132Z,41.97
2022-11-13T21:41:57.864Z,42.38
2022-11-13T21:44:24.362Z,41.49
2022-11-13T21:46:50.850Z,41.50
2022-11-13T21:49:17.165Z,42.05
2022-11-13T21:51:43.764Z,41.98
2022-11-13T21:54:10.238Z,41.87
2022-11-13T21:56:38.259Z,41.88
2022-11-13T21:59:05.707Z,42.38
2022-11-13T22:01:37.751Z,41.96
2022-11-13T22:04:04.792Z,42.49
2022-11-13T22:06:33.018Z,42.60
2022-11-13T22:09:04.529Z,43.01
2022-11-13T22:11:32.954Z,42.94
2022-11-13T22:14:00.267Z,42.75
2022-11-13T22:16:31.899Z,42.70
2022-11-13T22:19:00.146Z,43.32
2022-11-13T22:21:29.078Z,43.66
2022-11-13T22:23:56.717Z,43.12
2022-11-13T22:26:24.813Z,43.46
2022-11-13T22:28:53.338Z,43.21
2022-11-13T22:31:21.063Z,43.88
2022-11-13T22:33:51.402Z,43.34
2022-11-13T22:36:25.910Z,43.95
2022-11-13T22:38:52.843Z,43.85
2022-11-13T22:41:24.729Z,44.12
2022-11-13T22:43:53.594Z,43.86
2022-11-13T22:46:22.499Z,43.55
2022-11-13T22:48:50.514Z,44.02
2022-11-13T22:51:19.675Z,44.08
2022-11-13T22:53:56.501Z,44.38
2022-11-13T22:56:24.862Z,43.99
2022-11-13T22:58:53.988Z,43.80
2022-11-13T23:01:23.066Z,44.14
2022-11-13T23:03:51.145Z,43.94
2022-11-13T23:06:23.634Z,43.92
2022-11-13T23:08:50.573Z,44.19
2022-11-13T23:11:18.866Z,44.22
2022-11-13T23:13:48.801Z,44.20
2022-11-13T23:16:16.041Z,44.05
2022-11-13T23:18:42.808Z,43.66
2022-11-13T23:21:10.862Z,44.42
2022-11-13T23:23:37.688Z,44.30
2022-11-13T23:26:06.676Z,43.91
2022-11-13T23:28:33.331Z,43.64
2022-11-13T23:31:01.986Z,43.74
2022-11-13T23:33:28.673Z,44.33
2022-11-13T23:35:55.118Z,43.92
2022-11-13T23:38:24.233Z,43.89
2022-11-13T23:40:58.454Z,44.80
2022-11-13T23:43:41.674Z,44.02
2022-11-13T23:46:12.175Z,44.07
2022-11-13T23:48:40.158Z,44.42
2022-11-13T23:51:07.241Z,44.02
2022-11-13T23:53:33.700Z,44.40
2022-11-13T23:56:00.295Z,44.53
2022-11-13T23:58:27.165Z,45.01
